Time;durP1;ratioP1;P1;durP2;ratioP2;P2;SDS_P1;SDS_P2;PMS_P1;PMS_P2;Temp;Humidity;BMP_temperature;BMP_pressure;BME280_temperature;BME280_humidity;BME280_pressure;Samples;Min_cycle;Max_cycle;Signal;HPM_P1;HPM_P2
2023/07/21 00:01:10;;;;;;;4.97;1.38;;;19.20;99.90;;;;;;5133628;27;20111;-55
2023/07/21 00:03:38;;;;;;;3.17;1.45;;;17.80;99.90;;;;;;5133832;27;20030;-49
2023/07/21 00:06:06;;;;;;;2.47;1.30;;;;;;;;;;5133633;27;20031;-46
2023/07/21 00:08:35;;;;;;;4.82;1.63;;;18.30;99.90;;;;;;5133693;27;20437;-46
2023/07/21 00:11:01;;;;;;;4.35;1.73;;;18.80;99.90;;;;;;5133417;27;20028;-46
2023/07/21 00:13:27;;;;;;;3.28;1.60;;;18.30;99.90;;;;;;5136405;27;20081;-51
2023/07/21 00:15:54;;;;;;;2.88;1.52;;;18.50;99.90;;;;;;5153580;27;20440;-52
2023/07/21 00:18:21;;;;;;;5.07;1.73;;;14.40;99.90;;;;;;5154291;27;20027;-53
2023/07/21 00:20:47;;;;;;;2.13;1.17;;;17.00;99.90;;;;;;5140250;27;20108;-50
2023/07/21 00:23:13;;;;;;;2.35;1.27;;;;;;;;;;5134071;27;20035;-50
2023/07/21 00:25:40;;;;;;;3.10;1.50;;;;;;;;;;5142150;27;20038;-52
2023/07/21 00:28:05;;;;;;;3.15;1.30;;;18.20;99.90;;;;;;5132498;27;20032;-48
2023/07/21 00:30:32;;;;;;;3.33;1.88;;;19.10;99.90;;;;;;5133135;27;20069;-50
2023/07/21 00:32:57;;;;;;;2.25;1.38;;;19.40;99.90;;;;;;5131204;27;20024;-46
2023/07/21 00:35:23;;;;;;;5.43;1.75;;;14.90;99.90;;;;;;5147652;27;20037;-58
2023/07/21 00:37:49;;;;;;;2.75;1.52;;;;;;;;;;5146427;27;20023;-49
2023/07/21 00:40:21;;;;;;;3.13;1.63;;;17.50;99.90;;;;;;5133173;27;20077;-46
2023/07/21 00:42:46;;;;;;;3.20;1.50;;;14.90;99.90;;;;;;5139392;27;20038;-50
2023/07/21 00:45:14;;;;;;;3.13;1.70;;;;;;;;;;5153834;27;20079;-49
2023/07/21 00:47:40;;;;;;;2.55;1.33;;;17.40;99.90;;;;;;5139055;27;20248;-52
2023/07/21 00:50:07;;;;;;;3.28;1.48;;;15.20;99.90;;;;;;5153707;27;20501;-48
2023/07/21 00:52:34;;;;;;;5.30;1.60;;;14.80;99.90;;;;;;5153436;27;20031;-50
2023/07/21 00:55:01;;;;;;;4.63;2.05;;;14.70;99.90;;;;;;5144426;27;20023;-49
2023/07/21 00:57:27;;;;;;;3.67;1.58;;;;;;;;;;5148254;27;20026;-48
2023/07/21 00:59:52;;;;;;;4.93;1.98;;;14.30;99.90;;;;;;5153566;27;20110;-53
2023/07/21 01:02:18;;;;;;;3.50;1.70;;;17.90;99.90;;;;;;5153409;27;20682;-47
2023/07/21 01:04:44;;;;;;;3.70;1.70;;;17.40;99.90;;;;;;5153202;27;20023;-54
2023/07/21 01:07:11;;;;;;;3.28;1.67;;;14.40;99.90;;;;;;5153290;27;20031;-54
2023/07/21 01:09:38;;;;;;;5.10;1.70;;;16.40;99.90;;;;;;5153079;27;20042;-45
2023/07/21 01:12:09;;;;;;;3.63;1.65;;;17.70;99.90;;;;;;5147421;27;20019;-52
2023/07/21 01:14:36;;;;;;;3.90;1.73;;;16.30;99.90;;;;;;5145239;27;20045;-57
2023/07/21 01:17:02;;;;;;;2.63;1.65;;;17.50;99.90;;;;;;5152989;27;20034;-56
2023/07/21 01:19:30;;;;;;;3.38;1.83;;;14.10;99.90;;;;;;5153333;27;20053;-46
2023/07/21 01:22:25;;;;;;;4.25;1.75;;;14.30;99.90;;;;;;5152886;27;20031;-44
2023/07/21 01:24:51;;;;;;;2.38;1.33;;;18.00;99.90;;;;;;5153163;27;20019;-48
2023/07/21 01:27:23;;;;;;;4.53;1.77;;;18.00;99.90;;;;;;5152449;27;20022;-48
2023/07/21 01:29:50;;;;;;;2.88;1.80;;;17.00;99.90;;;;;;5153001;27;20053;-54
2023/07/21 01:32:21;;;;;;;3.40;2.03;;;17.30;99.90;;;;;;5148760;27;20027;-50
2023/07/21 01:34:47;;;;;;;3.20;1.65;;;13.40;99.90;;;;;;5152995;27;20031;-47
2023/07/21 01:37:15;;;;;;;5.15;1.98;;;16.90;99.90;;;;;;5152532;27;20026;-44
2023/07/21 01:39:42;;;;;;;4.18;2.20;;;17.10;99.90;;;;;;5152894;27;20376;-50
2023/07/21 01:42:08;;;;;;;4.50;2.15;;;13.90;99.90;;;;;;5152152;27;20118;-52
2023/07/21 01:44:34;;;;;;;3.88;2.08;;;18.30;99.90;;;;;;5152896;27;20102;-51
2023/07/21 01:47:00;;;;;;;8.98;2.85;;;;;;;;;;5152605;27;20507;-48
2023/07/21 01:49:26;;;;;;;3.75;2.13;;;16.50;99.90;;;;;;5152302;27;20057;-50
2023/07/21 01:51:59;;;;;;;3.90;2.50;;;17.20;99.90;;;;;;5152398;27;20046;-48
2023/07/21 01:54:39;;;;;;;4.57;2.00;;;16.90;99.90;;;;;;5152584;27;20475;-53
2023/07/21 01:57:07;;;;;;;5.70;2.53;;;13.10;99.90;;;;;;5152002;27;20066;-49
2023/07/21 01:59:33;;;;;;;6.63;2.58;;;13.60;99.90;;;;;;5152074;27;20093;-50
2023/07/21 02:01:59;;;;;;;5.20;2.70;;;13.60;99.90;;;;;;5152123;27;20072;-58
2023/07/21 02:04:25;;;;;;;4.32;2.25;;;15.80;99.90;;;;;;5152151;27;20027;-46
2023/07/21 02:06:51;;;;;;;4.80;2.50;;;;;;;;;;5152163;27;20015;-47
2023/07/21 02:09:19;;;;;;;5.60;2.28;;;17.90;99.90;;;;;;5151845;27;20079;-52
2023/07/21 02:11:45;;;;;;;3.88;2.05;;;13.20;99.90;;;;;;5149114;27;20015;-48
2023/07/21 02:14:11;;;;;;;4.00;2.20;;;;;;;;;;5140600;27;20019;-49
2023/07/21 02:16:39;;;;;;;4.68;2.50;;;13.20;99.90;;;;;;5151978;27;20026;-48
2023/07/21 02:19:06;;;;;;;5.18;2.22;;;;;;;;;;5152053;27;20027;-52
2023/07/21 02:21:32;;;;;;;5.45;2.50;;;;;;;;;;5151812;27;20117;-49
2023/07/21 02:23:58;;;;;;;7.32;2.70;;;16.70;99.90;;;;;;5151706;27;20402;-57
2023/07/21 02:26:24;;;;;;;7.68;2.30;;;;;;;;;;5151397;27;20163;-43
2023/07/21 02:28:50;;;;;;;4.55;2.00;;;;;;;;;;5151698;27;20019;-48
2023/07/21 02:31:16;;;;;;;5.30;2.85;;;13.80;99.90;;;;;;5151636;27;20509;-52
2023/07/21 02:33:42;;;;;;;6.25;2.40;;;;;;;;;;5149818;27;20019;-52
2023/07/21 02:36:08;;;;;;;5.05;2.47;;;;;;;;;;5138771;27;20021;-48
2023/07/21 02:38:34;;;;;;;5.05;2.38;;;12.70;99.90;;;;;;5154526;27;20027;-55
2023/07/21 02:41:04;;;;;;;5.18;2.35;;;12.90;99.90;;;;;;5155666;27;20018;-61
2023/07/21 02:43:30;;;;;;;4.55;2.42;;;16.20;99.90;;;;;;5156114;27;20034;-49
2023/07/21 02:45:56;;;;;;;3.45;2.05;;;17.50;99.90;;;;;;5155917;27;20045;-50
2023/07/21 02:48:22;;;;;;;4.50;2.58;;;;;;;;;;5155796;27;20031;-51
2023/07/21 02:50:52;;;;;;;4.97;2.25;;;16.00;99.90;;;;;;5155580;27;20102;-52
2023/07/21 02:53:20;;;;;;;4.43;2.05;;;16.20;99.90;;;;;;5155792;27;20015;-47
2023/07/21 02:55:47;;;;;;;4.82;2.30;;;16.10;99.90;;;;;;5155746;27;20042;-48
2023/07/21 02:58:15;;;;;;;4.88;2.40;;;16.20;99.90;;;;;;5155634;27;20102;-52
2023/07/21 03:00:41;;;;;;;5.07;2.30;;;14.70;99.90;;;;;;5155785;27;20064;-48
2023/07/21 03:03:12;;;;;;;4.57;2.25;;;14.70;99.90;;;;;;5155485;27;20031;-46
2023/07/21 03:05:38;;;;;;;4.15;2.13;;;17.20;99.90;;;;;;5155442;27;20031;-56
2023/07/21 03:08:04;;;;;;;4.78;2.25;;;14.60;99.90;;;;;;5155403;27;20018;-47
2023/07/21 03:10:30;;;;;;;5.05;2.15;;;15.80;99.90;;;;;;5155496;27;20495;-50
2023/07/21 03:12:55;;;;;;;3.38;2.03;;;12.60;99.90;;;;;;5142218;27;20054;-49
2023/07/21 03:15:21;;;;;;;3.28;2.17;;;15.70;99.90;;;;;;5153712;27;20395;-43
2023/07/21 03:17:47;;;;;;;10.73;2.70;;;16.60;99.90;;;;;;5155326;27;20058;-45
2023/07/21 03:20:14;;;;;;;5.28;2.63;;;15.80;99.90;;;;;;5155075;27;20038;-55
2023/07/21 03:22:44;;;;;;;4.28;2.60;;;16.00;99.90;;;;;;5155228;27;20042;-55
2023/07/21 03:25:11;;;;;;;4.22;2.20;;;14.60;99.90;;;;;;5155065;27;20475;-46
2023/07/21 03:27:39;;;;;;;4.40;2.60;;;14.60;99.90;;;;;;5154961;27;20144;-48
2023/07/21 03:30:13;;;;;;;5.35;2.88;;;12.50;99.90;;;;;;5155080;27;20018;-52
2023/07/21 03:32:39;;;;;;;7.18;2.40;;;11.60;99.90;;;;;;5143864;27;20079;-55
2023/07/21 03:35:05;;;;;;;6.60;2.65;;;15.90;99.90;;;;;;5137735;27;20019;-45
2023/07/21 03:37:34;;;;;;;5.38;2.50;;;16.10;99.90;;;;;;5153243;27;20499;-47
2023/07/21 03:40:03;;;;;;;5.28;2.42;;;15.80;99.90;;;;;;5141424;27;20027;-51
2023/07/21 03:42:29;;;;;;;5.40;2.42;;;12.30;99.90;;;;;;5142409;27;20078;-49
2023/07/21 03:44:55;;;;;;;5.28;2.47;;;;;;;;;;5154734;27;20116;-43
2023/07/21 03:47:20;;;;;;;5.10;2.47;;;15.40;99.90;;;;;;5154532;27;20031;-56
2023/07/21 03:49:46;;;;;;;6.75;2.72;;;14.30;99.90;;;;;;5153233;27;20046;-43
2023/07/21 03:52:13;;;;;;;4.57;2.00;;;15.30;99.90;;;;;;5154729;27;20054;-46
2023/07/21 03:54:40;;;;;;;4.07;2.28;;;16.70;99.90;;;;;;5154682;27;20104;-53
2023/07/21 03:57:06;;;;;;;5.30;2.45;;;14.70;99.90;;;;;;5152366;27;20047;-58
2023/07/21 03:59:32;;;;;;;6.90;2.58;;;16.40;99.90;;;;;;5137575;27;20071;-52
2023/07/21 04:01:58;;;;;;;5.00;2.28;;;;;;;;;;5138636;27;20114;-52
2023/07/21 04:04:24;;;;;;;5.85;2.92;;;12.20;99.90;;;;;;5140957;27;20098;-54
2023/07/21 04:06:50;;;;;;;4.43;2.20;;;;;;;;;;5148094;27;20510;-54
2023/07/21 04:09:15;;;;;;;4.72;2.70;;;15.30;99.90;;;;;;5145962;27;20018;-51
2023/07/21 04:11:41;;;;;;;4.70;2.30;;;15.30;99.90;;;;;;5154047;27;20432;-49
2023/07/21 04:14:08;;;;;;;6.28;2.70;;;;;;;;;;5153996;27;20054;-52
2023/07/21 04:16:34;;;;;;;8.65;2.55;;;15.10;99.90;;;;;;5139085;27;20015;-54
2023/07/21 04:18:59;;;;;;;4.90;2.88;;;15.70;99.90;;;;;;5154088;27;20018;-51
2023/07/21 04:21:25;;;;;;;5.20;2.80;;;14.40;99.90;;;;;;5153897;27;20038;-48
2023/07/21 04:23:51;;;;;;;8.65;2.65;;;15.70;99.90;;;;;;5153877;27;20046;-47
2023/07/21 04:26:18;;;;;;;5.78;2.40;;;;;;;;;;5154100;27;20047;-44
2023/07/21 04:28:44;;;;;;;5.38;2.75;;;13.70;99.90;;;;;;5153778;27;20026;-43
2023/07/21 04:31:11;;;;;;;5.05;2.53;;;;;;;;;;5154129;27;20030;-52
2023/07/21 04:33:37;;;;;;;4.88;2.55;;;;;;;;;;5139195;27;20480;-47
2023/07/21 04:36:04;;;;;;;6.70;2.63;;;13.70;99.90;;;;;;5153979;27;20073;-46
2023/07/21 04:38:30;;;;;;;5.90;2.40;;;;;;;;;;5153926;27;20387;-43
2023/07/21 04:40:56;;;;;;;5.25;2.50;;;15.90;99.90;;;;;;5124579;27;20023;-49
2023/07/21 04:43:22;;;;;;;5.72;2.67;;;;;;;;;;5153768;27;20030;-43
2023/07/21 04:45:48;;;;;;;6.00;2.80;;;11.60;99.90;;;;;;5153441;27;20026;-56
2023/07/21 04:48:14;;;;;;;5.55;2.53;;;;;;;;;;5153713;27;20042;-50
2023/07/21 04:50:42;;;;;;;7.20;2.88;;;13.00;99.90;;;;;;5153584;27;20019;-49
2023/07/21 04:53:11;;;;;;;6.13;2.60;;;13.80;99.90;;;;;;5153752;27;20018;-49
2023/07/21 04:55:38;;;;;;;5.97;2.93;;;14.60;99.90;;;;;;5153349;27;20055;-49
2023/07/21 04:58:05;;;;;;;5.28;2.55;;;10.90;99.90;;;;;;5153596;27;20346;-43
2023/07/21 05:00:30;;;;;;;5.78;2.50;;;13.80;99.90;;;;;;5153324;27;20087;-55
2023/07/21 05:02:57;;;;;;;6.75;2.35;;;16.00;99.90;;;;;;5153341;27;20031;-47
2023/07/21 05:05:23;;;;;;;6.20;2.47;;;;;;;;;;5153411;27;20101;-43
2023/07/21 05:07:49;;;;;;;6.00;2.72;;;11.90;99.90;;;;;;5138579;27;20479;-47
2023/07/21 05:10:15;;;;;;;5.82;2.80;;;;;;;;;;5152819;27;20023;-49
2023/07/21 05:12:40;;;;;;;6.13;2.55;;;14.30;99.90;;;;;;5141302;27;20027;-52
2023/07/21 05:15:08;;;;;;;7.25;2.60;;;;;;;;;;5153399;27;20546;-45
2023/07/21 05:17:34;;;;;;;6.35;3.10;;;;;;;;;;5153327;27;20610;-51
2023/07/21 05:20:00;;;;;;;5.78;2.70;;;;;;;;;;5153391;27;20015;-53
2023/07/21 05:22:26;;;;;;;4.82;2.30;;;14.90;99.90;;;;;;5153062;27;20509;-48
2023/07/21 05:24:52;;;;;;;4.35;2.40;;;16.40;99.90;;;;;;5153093;27;20102;-44
2023/07/21 05:27:18;;;;;;;6.82;2.90;;;15.40;99.90;;;;;;5153078;27;20498;-46
2023/07/21 05:29:44;;;;;;;6.38;3.28;;;;;;;;;;5152726;27;20065;-43
2023/07/21 05:32:10;;;;;;;6.50;3.22;;;12.10;99.90;;;;;;5153067;27;20022;-47
2023/07/21 05:34:36;;;;;;;6.57;2.92;;;;;;;;;;5152939;27;20110;-44
2023/07/21 05:37:02;;;;;;;7.40;2.72;;;15.70;99.90;;;;;;5152786;27;20018;-46
2023/07/21 05:39:29;;;;;;;5.65;2.83;;;14.60;99.90;;;;;;5152938;27;20383;-44
2023/07/21 05:41:58;;;;;;;5.88;3.35;;;13.20;99.90;;;;;;5152309;27;20031;-52
2023/07/21 05:44:25;;;;;;;6.07;3.15;;;15.00;99.90;;;;;;5152585;27;20019;-54
2023/07/21 05:46:50;;;;;;;7.22;3.10;;;15.60;99.90;;;;;;5152397;27;20029;-47
2023/07/21 05:49:16;;;;;;;7.28;3.72;;;15.80;99.90;;;;;;5152681;27;20015;-53
2023/07/21 05:51:43;;;;;;;6.32;3.08;;;16.40;99.90;;;;;;5152708;27;20026;-43
2023/07/21 05:54:09;;;;;;;5.85;3.33;;;;;;;;;;5152398;27;20023;-54
2023/07/21 05:56:34;;;;;;;7.70;2.75;;;17.60;99.90;;;;;;5152438;27;20049;-45
2023/07/21 05:59:00;;;;;;;9.77;3.25;;;16.80;99.90;;;;;;5152687;27;20416;-54
2023/07/21 06:01:27;;;;;;;7.80;3.63;;;16.50;99.90;;;;;;5152396;27;20513;-50
2023/07/21 06:03:53;;;;;;;6.45;3.38;;;;;;;;;;5152441;27;20072;-44
2023/07/21 06:06:18;;;;;;;10.18;3.30;;;18.40;99.90;;;;;;5148399;27;20023;-53
2023/07/21 06:08:44;;;;;;;7.47;3.25;;;18.50;99.90;;;;;;5141971;27;20019;-50
2023/07/21 06:11:10;;;;;;;8.32;3.20;;;;;;;;;;5152305;27;20050;-47
2023/07/21 06:13:36;;;;;;;7.40;3.75;;;15.40;99.90;;;;;;5151391;27;20064;-47
2023/07/21 06:16:01;;;;;;;6.47;2.97;;;20.10;99.90;;;;;;5152295;27;20030;-47
2023/07/21 06:18:27;;;;;;;5.70;2.63;;;21.80;99.90;;;;;;5150856;27;20027;-49
2023/07/21 06:20:53;;;;;;;7.10;3.40;;;20.80;99.90;;;;;;5152381;27;20019;-50
2023/07/21 06:23:19;;;;;;;5.18;2.65;;;;;;;;;;5151991;27;20051;-45
2023/07/21 06:25:45;;;;;;;6.63;2.85;;;18.50;99.90;;;;;;5152462;27;20043;-44
2023/07/21 06:28:11;;;;;;;6.47;3.00;;;21.10;99.90;;;;;;5152009;27;20069;-46
2023/07/21 06:30:37;;;;;;;6.22;3.10;;;22.30;99.90;;;;;;5152145;27;20515;-50
2023/07/21 06:33:05;;;;;;;5.43;2.90;;;22.00;99.90;;;;;;5152110;27;20150;-54
2023/07/21 06:35:31;;;;;;;4.23;2.43;;;21.70;99.90;;;;;;5152070;27;20436;-48
2023/07/21 06:37:57;;;;;;;5.35;2.85;;;23.30;99.90;;;;;;5151954;27;20106;-49
2023/07/21 06:40:23;;;;;;;6.28;2.90;;;22.50;99.90;;;;;;5151812;27;20021;-45
2023/07/21 06:42:49;;;;;;;5.70;3.05;;;24.00;99.90;;;;;;5152111;27;20038;-48
2023/07/21 06:45:15;;;;;;;5.30;2.55;;;22.30;99.90;;;;;;5151889;27;20211;-47
2023/07/21 06:47:41;;;;;;;4.80;2.53;;;24.70;99.90;;;;;;5152119;27;20492;-48
2023/07/21 06:50:07;;;;;;;5.47;2.85;;;23.90;99.90;;;;;;5151596;27;20364;-44
2023/07/21 06:52:33;;;;;;;5.97;3.08;;;24.10;98.90;;;;;;5152006;27;20080;-44
2023/07/21 06:54:58;;;;;;;5.80;3.00;;;24.40;96.80;;;;;;5151799;27;20031;-47
2023/07/21 06:57:24;;;;;;;5.20;2.88;;;24.60;97.10;;;;;;5151649;27;20046;-46
2023/07/21 06:59:50;;;;;;;4.72;2.92;;;24.70;95.60;;;;;;5151727;27;20037;-45
2023/07/21 07:02:15;;;;;;;4.45;2.47;;;23.80;94.70;;;;;;5151586;27;20095;-52
2023/07/21 07:04:41;;;;;;;5.55;2.70;;;24.50;94.40;;;;;;5151290;27;20021;-48
2023/07/21 07:07:07;;;;;;;5.05;2.50;;;23.30;94.70;;;;;;5140653;27;20313;-46
2023/07/21 07:09:33;;;;;;;4.93;2.90;;;25.80;94.80;;;;;;5148127;27;20046;-47
2023/07/21 07:11:59;;;;;;;5.22;2.60;;;;;;;;;;5151991;27;20056;-45
2023/07/21 07:14:26;;;;;;;4.65;2.40;;;23.00;91.70;;;;;;5151405;27;20506;-44
2023/07/21 07:16:52;;;;;;;5.35;2.38;;;;;;;;;;5151740;27;20552;-50
2023/07/21 07:19:19;;;;;;;3.97;2.30;;;25.00;91.60;;;;;;5151486;27;20027;-47
2023/07/21 07:21:44;;;;;;;5.38;2.47;;;26.00;90.60;;;;;;5151228;27;20049;-46
2023/07/21 07:24:10;;;;;;;7.60;2.58;;;26.80;88.60;;;;;;5153391;27;20467;-55
2023/07/21 07:26:36;;;;;;;4.00;2.40;;;;;;;;;;5154161;27;20145;-45
2023/07/21 07:29:05;;;;;;;4.13;2.45;;;26.00;86.70;;;;;;5155313;27;20022;-49
2023/07/21 07:31:31;;;;;;;4.10;2.42;;;25.20;85.10;;;;;;5140682;27;20095;-47
2023/07/21 07:33:57;;;;;;;4.50;2.40;;;27.10;83.40;;;;;;5155432;27;20508;-45
2023/07/21 07:36:23;;;;;;;4.38;2.50;;;26.50;84.50;;;;;;5155249;27;20038;-50
2023/07/21 07:38:49;;;;;;;3.72;2.22;;;24.80;81.40;;;;;;5155064;27;20022;-48
2023/07/21 07:41:14;;;;;;;4.63;2.42;;;28.30;81.20;;;;;;5155324;27;20420;-47
2023/07/21 07:43:40;;;;;;;4.97;2.60;;;28.10;81.40;;;;;;5154940;27;20470;-51
2023/07/21 07:46:07;;;;;;;3.58;2.05;;;27.60;80.40;;;;;;5153966;27;20023;-53
2023/07/21 07:48:33;;;;;;;4.45;2.22;;;26.70;80.40;;;;;;5155008;27;20368;-50
2023/07/21 07:51:05;;;;;;;6.18;2.20;;;25.70;81.40;;;;;;5154877;27;20427;-50
2023/07/21 07:53:35;;;;;;;4.25;2.47;;;24.70;80.80;;;;;;5154856;27;20121;-46
2023/07/21 07:56:02;;;;;;;4.28;2.35;;;23.50;80.00;;;;;;5154931;27;20118;-54
2023/07/21 07:58:28;;;;;;;3.92;2.40;;;23.90;81.60;;;;;;5155010;27;20066;-50
2023/07/21 08:00:58;;;;;;;3.90;2.50;;;25.60;83.10;;;;;;5154534;27;20037;-47
2023/07/21 08:03:25;;;;;;;4.40;2.33;;;23.80;84.50;;;;;;5133482;27;20079;-53
2023/07/21 08:05:51;;;;;;;4.68;2.45;;;25.50;80.60;;;;;;5132966;27;20016;-51
2023/07/21 08:08:18;;;;;;;4.03;2.58;;;25.80;80.70;;;;;;5125671;27;20022;-47
2023/07/21 08:10:47;;;;;;;4.30;2.75;;;25.90;83.60;;;;;;5154562;27;20027;-48
2023/07/21 08:13:13;;;;;;;4.30;2.55;;;25.80;85.00;;;;;;5148694;27;20388;-49
2023/07/21 08:15:40;;;;;;;4.45;2.53;;;23.40;81.80;;;;;;5143366;27;20015;-50
2023/07/21 08:18:06;;;;;;;5.07;2.53;;;26.50;85.20;;;;;;5142000;27;20546;-52
2023/07/21 08:20:31;;;;;;;4.35;2.50;;;23.70;79.90;;;;;;5133602;27;20110;-48
2023/07/21 08:22:57;;;;;;;4.05;2.63;;;26.20;82.80;;;;;;5133550;27;20059;-44
2023/07/21 08:25:23;;;;;;;4.10;2.28;;;26.10;83.40;;;;;;5133524;27;20022;-51
2023/07/21 08:27:49;;;;;;;6.85;2.60;;;25.30;82.90;;;;;;5133721;27;20027;-45
2023/07/21 08:30:15;;;;;;;4.53;2.60;;;25.00;78.90;;;;;;5133265;27;20054;-50
2023/07/21 08:32:41;;;;;;;3.50;2.45;;;25.90;84.70;;;;;;5133354;27;20027;-48
2023/07/21 08:35:08;;;;;;;3.88;2.20;;;24.50;81.00;;;;;;5132333;27;20026;-50
2023/07/21 08:37:33;;;;;;;6.65;2.67;;;26.10;80.60;;;;;;5124252;27;20030;-45
2023/07/21 08:39:59;;;;;;;5.03;2.15;;;25.80;79.40;;;;;;5133289;27;20019;-55
2023/07/21 08:42:25;;;;;;;4.03;2.28;;;25.90;82.90;;;;;;5133073;27;20046;-47
2023/07/21 08:44:54;;;;;;;5.28;2.35;;;26.40;82.50;;;;;;5133112;27;20015;-49
2023/07/21 08:47:21;;;;;;;3.95;2.28;;;26.40;82.90;;;;;;5132712;27;20067;-52
2023/07/21 08:49:47;;;;;;;3.97;2.30;;;28.00;81.70;;;;;;5133023;27;20020;-45
2023/07/21 08:52:13;;;;;;;4.18;2.20;;;27.00;74.60;;;;;;5132887;27;20488;-49
2023/07/21 08:54:39;;;;;;;4.40;2.25;;;;;;;;;;5133747;27;20136;-49
2023/07/21 08:57:05;;;;;;;3.97;2.20;;;26.90;78.50;;;;;;5132667;27;20407;-53
2023/07/21 08:59:31;;;;;;;5.38;2.20;;;26.90;80.60;;;;;;5132535;27;20019;-47
2023/07/21 09:01:57;;;;;;;3.92;2.15;;;26.60;78.10;;;;;;5132731;27;20027;-48
2023/07/21 09:04:25;;;;;;;4.03;2.47;;;24.10;77.00;;;;;;5132435;27;20035;-47
2023/07/21 09:06:56;;;;;;;4.95;2.53;;;26.50;81.20;;;;;;5132574;27;20019;-50
2023/07/21 09:09:27;;;;;;;4.20;2.20;;;24.70;77.20;;;;;;5148136;27;20035;-53
2023/07/21 09:12:17;;;;;;;5.10;2.63;;;27.00;77.50;;;;;;5153177;27;20088;-47
2023/07/21 09:14:44;;;;;;;4.65;2.78;;;28.20;78.80;;;;;;5153202;27;20022;-53
2023/07/21 09:17:12;;;;;;;4.18;2.25;;;27.20;80.40;;;;;;5152642;27;20769;-44
2023/07/21 09:19:43;;;;;;;5.30;2.97;;;26.90;77.70;;;;;;5136955;27;20487;-47
2023/07/21 09:22:11;;;;;;;4.20;2.20;;;24.30;75.50;;;;;;5131975;27;20126;-44
2023/07/21 09:24:50;;;;;;;4.40;2.30;;;28.20;76.30;;;;;;5126298;27;20508;-51
2023/07/21 09:27:17;;;;;;;4.22;2.30;;;27.50;77.10;;;;;;5131583;27;20023;-47
2023/07/21 09:29:44;;;;;;;4.38;2.20;;;26.20;79.50;;;;;;5126555;27;20019;-51
2023/07/21 09:32:15;;;;;;;4.53;2.47;;;27.00;77.50;;;;;;5133397;27;20076;-44
2023/07/21 09:35:03;;;;;;;4.30;2.40;;;27.10;79.60;;;;;;5132390;27;20525;-47
2023/07/21 09:37:30;;;;;;;3.80;2.27;;;26.60;76.70;;;;;;5125874;27;20038;-48
2023/07/21 09:40:00;;;;;;;4.13;1.98;;;26.80;76.90;;;;;;5131550;27;20060;-44
2023/07/21 09:42:27;;;;;;;4.15;2.22;;;26.30;76.90;;;;;;5131584;27;20491;-44
2023/07/21 09:44:55;;;;;;;4.82;2.55;;;24.50;75.80;;;;;;5131863;27;20053;-55
2023/07/21 09:47:21;;;;;;;4.93;2.67;;;;;;;;;;5131552;27;20158;-47
2023/07/21 09:49:49;;;;;;;4.30;2.42;;;26.60;78.00;;;;;;5131484;27;20023;-47
2023/07/21 09:52:16;;;;;;;4.90;3.03;;;25.50;78.80;;;;;;5131370;27;20037;-45
2023/07/21 09:54:47;;;;;;;4.18;2.45;;;24.10;80.60;;;;;;5130673;27;20011;-45
2023/07/21 09:57:17;;;;;;;3.90;2.38;;;25.90;80.00;;;;;;5131493;27;20043;-50
2023/07/21 09:59:49;;;;;;;4.72;2.58;;;26.00;77.90;;;;;;5131709;27;20023;-50
2023/07/21 10:02:15;;;;;;;4.43;2.35;;;26.20;79.10;;;;;;5131376;27;20035;-46
2023/07/21 10:04:44;;;;;;;3.78;2.42;;;26.80;77.40;;;;;;5131116;27;20042;-49
2023/07/21 10:07:12;;;;;;;4.22;2.58;;;;;;;;;;5129588;27;20050;-53
2023/07/21 10:09:39;;;;;;;4.82;2.63;;;24.70;76.80;;;;;;5147433;27;20019;-51
2023/07/21 10:12:16;;;;;;;5.15;2.45;;;25.90;76.40;;;;;;5150282;27;20021;-47
2023/07/21 10:14:44;;;;;;;4.38;2.58;;;26.00;79.90;;;;;;5150092;27;20026;-46
2023/07/21 10:17:11;;;;;;;5.00;2.90;;;24.20;82.00;;;;;;5150124;27;20019;-49
2023/07/21 10:19:41;;;;;;;4.47;3.25;;;27.90;78.50;;;;;;5149923;27;20023;-47
2023/07/21 10:22:24;;;;;;;10.40;2.70;;;27.10;78.50;;;;;;5152110;27;20026;-54
2023/07/21 10:24:54;;;;;;;4.78;2.95;;;28.30;77.00;;;;;;5152649;27;20060;-44
2023/07/21 10:27:23;;;;;;;4.20;2.40;;;30.50;74.90;;;;;;5152190;27;20019;-47
2023/07/21 10:30:15;;;;;;;3.85;2.05;;;28.60;74.50;;;;;;5152211;27;20027;-50
2023/07/21 10:32:44;;;;;;;4.55;2.58;;;28.80;72.00;;;;;;5151909;27;20019;-47
2023/07/21 10:35:28;;;;;;;;;;;28.60;69.20;;;;;;5152501;27;20026;-44
2023/07/21 10:38:22;;;;;;;4.65;2.35;;;28.40;72.10;;;;;;5152448;27;19969;-50
2023/07/21 10:40:47;;;;;;;5.35;2.28;;;28.20;72.80;;;;;;5149900;27;20026;-50
2023/07/21 10:43:13;;;;;;;4.57;2.38;;;27.70;74.40;;;;;;5152003;27;20389;-49
2023/07/21 10:45:39;;;;;;;5.28;2.42;;;26.90;72.30;;;;;;5151956;27;20073;-53
2023/07/21 10:48:11;;;;;;;3.75;2.13;;;23.80;71.80;;;;;;5145597;27;20027;-44
2023/07/21 10:50:37;;;;;;;3.72;2.50;;;;;;;;;;5135178;27;20031;-47
2023/07/21 10:53:02;;;;;;;3.88;2.47;;;25.90;75.60;;;;;;5131583;27;20038;-47
2023/07/21 10:55:28;;;;;;;4.78;2.33;;;26.00;77.30;;;;;;5128534;27;20054;-45
2023/07/21 10:57:54;;;;;;;3.85;2.42;;;25.90;77.00;;;;;;5130862;27;20492;-53
2023/07/21 11:00:19;;;;;;;3.63;2.08;;;26.30;80.10;;;;;;5140605;27;20101;-52
2023/07/21 11:02:45;;;;;;;6.30;3.00;;;22.80;75.50;;;;;;5132714;27;20053;-51
2023/07/21 11:05:11;;;;;;;6.82;2.83;;;25.30;79.30;;;;;;5140105;27;20490;-50
2023/07/21 11:07:36;;;;;;;5.25;2.78;;;24.20;78.90;;;;;;5133965;27;20094;-47
2023/07/21 11:10:03;;;;;;;5.15;2.80;;;25.30;83.70;;;;;;5134935;27;20019;-44
2023/07/21 11:12:29;;;;;;;6.03;2.92;;;25.50;80.70;;;;;;5134776;27;20488;-48
2023/07/21 11:14:55;;;;;;;5.43;2.90;;;27.90;82.30;;;;;;5139470;27;20386;-45
2023/07/21 11:17:21;;;;;;;4.30;2.63;;;26.40;80.40;;;;;;5144614;27;20416;-49
2023/07/21 11:19:46;;;;;;;4.75;2.60;;;26.50;79.40;;;;;;5151945;27;20030;-45
2023/07/21 11:22:12;;;;;;;4.80;2.72;;;27.20;74.40;;;;;;5155570;27;20042;-47
2023/07/21 11:24:38;;;;;;;4.32;2.63;;;28.80;76.70;;;;;;5155530;27;20487;-50
2023/07/21 11:27:09;;;;;;;5.35;2.90;;;26.00;73.50;;;;;;5155143;27;20399;-49
2023/07/21 11:29:37;;;;;;;4.53;2.67;;;23.30;79.20;;;;;;5147537;27;20023;-51
2023/07/21 11:32:16;;;;;;;4.90;2.72;;;26.10;78.20;;;;;;5155027;27;20097;-46
2023/07/21 11:34:42;;;;;;;4.90;2.65;;;26.20;78.90;;;;;;5154038;27;20383;-51
2023/07/21 11:37:09;;;;;;;6.00;3.03;;;27.00;78.50;;;;;;5155106;27;20018;-46
2023/07/21 11:39:34;;;;;;;4.50;2.33;;;29.10;79.80;;;;;;5154057;27;20105;-57
2023/07/21 11:42:00;;;;;;;3.70;2.65;;;27.70;76.90;;;;;;5154637;27;20114;-50
2023/07/21 11:44:31;;;;;;;6.07;2.58;;;28.30;77.70;;;;;;5155397;27;20027;-55
2023/07/21 11:47:07;;;;;;;4.13;2.53;;;28.00;73.40;;;;;;5154962;27;20057;-55
2023/07/21 11:49:40;;;;;;;7.85;2.88;;;28.40;75.10;;;;;;5154925;27;20072;-52
2023/07/21 11:52:07;;;;;;;3.97;2.50;;;28.30;74.10;;;;;;5155008;27;20031;-48
2023/07/21 11:54:39;;;;;;;4.38;2.47;;;28.50;73.70;;;;;;5154827;27;20026;-53
2023/07/21 11:57:05;;;;;;;3.97;1.90;;;;;;;;;;5154386;27;20495;-46
2023/07/21 11:59:31;;;;;;;3.95;2.08;;;28.40;69.70;;;;;;5154818;27;20014;-49
2023/07/21 12:01:57;;;;;;;3.63;2.10;;;27.80;72.70;;;;;;5154759;27;20046;-52
2023/07/21 12:04:23;;;;;;;4.07;1.90;;;28.00;75.70;;;;;;5154455;27;20018;-48
2023/07/21 12:06:49;;;;;;;3.38;2.00;;;29.20;75.00;;;;;;5146315;27;20498;-51
2023/07/21 12:09:16;;;;;;;3.53;2.05;;;28.00;73.30;;;;;;5148197;27;20078;-48
2023/07/21 12:11:42;;;;;;;3.33;2.08;;;27.80;73.30;;;;;;5153305;27;20772;-46
2023/07/21 12:14:09;;;;;;;3.58;1.73;;;27.30;72.50;;;;;;5154783;27;20022;-52
2023/07/21 12:16:35;;;;;;;2.28;1.50;;;27.80;72.90;;;;;;5154538;27;20071;-48
2023/07/21 12:19:03;;;;;;;2.95;1.80;;;28.00;74.70;;;;;;5154472;27;20091;-47
2023/07/21 12:21:29;;;;;;;3.67;1.80;;;26.00;72.20;;;;;;5154097;27;20648;-55
2023/07/21 12:23:55;;;;;;;4.05;2.00;;;28.40;74.90;;;;;;5134012;27;20039;-52
2023/07/21 12:26:22;;;;;;;3.30;1.77;;;;;;;;;;5134168;27;20027;-51
2023/07/21 12:28:50;;;;;;;3.38;1.95;;;27.50;76.20;;;;;;5139189;27;20727;-50
2023/07/21 12:31:19;;;;;;;4.63;1.60;;;29.00;73.50;;;;;;5140420;27;20022;-45
2023/07/21 12:33:45;;;;;;;1.98;1.55;;;27.90;73.40;;;;;;5138771;27;20023;-45
2023/07/21 12:36:12;;;;;;;3.03;1.85;;;27.90;68.60;;;;;;5140419;27;20019;-46
2023/07/21 12:38:38;;;;;;;3.35;1.90;;;27.90;68.40;;;;;;5133838;27;20064;-49
2023/07/21 12:41:03;;;;;;;2.80;1.75;;;27.10;70.10;;;;;;5133071;27;20031;-46
2023/07/21 12:43:29;;;;;;;2.78;1.50;;;27.70;70.50;;;;;;5133045;27;20058;-45
2023/07/21 12:45:55;;;;;;;2.88;1.50;;;29.00;72.70;;;;;;5133183;27;20038;-45
2023/07/21 12:48:20;;;;;;;2.28;1.45;;;28.10;70.60;;;;;;5132991;27;20019;-45
2023/07/21 12:50:47;;;;;;;3.97;1.80;;;;;;;;;;5132905;27;20475;-48
2023/07/21 12:53:13;;;;;;;8.63;2.70;;;26.90;76.00;;;;;;5132897;27;20497;-44
2023/07/21 12:55:39;;;;;;;3.90;2.55;;;27.50;75.20;;;;;;5132925;27;20129;-52
2023/07/21 12:58:05;;;;;;;5.75;2.65;;;28.00;77.40;;;;;;5134436;27;20415;-49
2023/07/21 13:00:31;;;;;;;4.20;2.40;;;26.60;77.30;;;;;;5136315;27;20027;-48
2023/07/21 13:02:56;;;;;;;5.50;2.42;;;25.90;76.90;;;;;;5127747;27;20039;-46